Time;durP1;ratioP1;P1;durP2;ratioP2;P2;SDS_P1;SDS_P2;PMS_P1;PMS_P2;Temp;Humidity;BMP_temperature;BMP_pressure;BME280_temperature;BME280_humidity;BME280_pressure;Samples;Min_cycle;Max_cycle;Signal;HPM_P1;HPM_P2
2022/12/08 00:01:31;;;;;;;;;;;9.80;99.90;;;;;;5067585;28;19961;-69
2022/12/08 00:03:58;;;;;;;;;;;9.60;99.90;;;;;;5078557;28;19920;-72
2022/12/08 00:16:04;;;;;;;;;;;9.00;99.90;;;;;;5048994;28;19958;-71
2022/12/08 00:18:39;;;;;;;;;;;8.80;99.90;;;;;;5036646;28;19921;-69
2022/12/08 00:33:19;;;;;;;;;;;8.60;99.90;;;;;;5014140;28;19920;-70
2022/12/08 00:35:44;;;;;;;;;;;8.50;99.90;;;;;;5056196;28;20412;-70
2022/12/08 00:38:20;;;;;;;;;;;8.50;99.90;;;;;;5095270;28;19970;-69
2022/12/08 00:40:53;;;;;;;;;;;8.60;99.90;;;;;;5077477;28;19912;-68
2022/12/08 00:43:19;;;;;;;;;;;8.60;99.90;;;;;;5089286;28;19919;-69
2022/12/08 00:45:45;;;;;;;;;;;8.70;99.90;;;;;;5078181;28;19920;-70
2022/12/08 00:48:11;;;;;;;;;;;8.60;99.90;;;;;;5095769;28;19917;-69
2022/12/08 00:53:45;;;;;;;;;;;8.50;99.90;;;;;;5048204;28;19973;-67
2022/12/08 00:56:13;;;;;;;;;;;8.50;99.90;;;;;;5077625;28;19961;-67
2022/12/08 00:58:39;;;;;;;;;;;8.50;99.90;;;;;;5081046;28;19920;-68
2022/12/08 01:01:17;;;;;;;;;;;8.50;99.90;;;;;;5076070;28;19931;-66
2022/12/08 01:03:46;;;;;;;;;;;8.50;99.90;;;;;;5063647;28;19939;-68
2022/12/08 01:06:12;;;;;;;;;;;8.50;99.90;;;;;;5084564;28;19956;-70
2022/12/08 01:08:38;;;;;;;;;;;8.60;99.90;;;;;;5095337;28;19919;-69
2022/12/08 01:11:08;;;;;;;;;;;8.60;99.90;;;;;;5083292;28;19919;-69
2022/12/08 01:13:47;;;;;;;;;;;8.70;99.90;;;;;;5085284;28;19965;-70
2022/12/08 01:16:20;;;;;;;;;;;8.80;99.90;;;;;;5074994;28;20011;-70
2022/12/08 01:19:04;;;;;;;;;;;8.80;99.90;;;;;;5075633;28;19924;-69
2022/12/08 01:25:05;;;;;;;;;;;8.90;99.90;;;;;;5046397;28;19920;-70
2022/12/08 01:27:41;;;;;;;;;;;9.00;99.90;;;;;;5049335;28;19917;-69
2022/12/08 01:30:07;;;;;;;;;;;8.90;99.90;;;;;;5076647;28;20007;-70
2022/12/08 01:32:33;;;;;;;;;;;9.00;99.90;;;;;;5079594;28;19954;-70
2022/12/08 01:35:00;;;;;;;;;;;9.00;99.90;;;;;;5077219;28;19916;-69
2022/12/08 01:37:29;;;;;;;;;;;8.80;99.90;;;;;;5087857;28;21976;-71
2022/12/08 01:39:55;;;;;;;;;;;8.90;99.90;;;;;;5077079;28;19915;-68
2022/12/08 01:42:37;;;;;;;;;;;;;;;;;;;;;
2022/12/08 01:45:26;;;;;;;;;;;8.90;99.90;;;;;;5087110;28;19998;-70
2022/12/08 01:47:57;;;;;;;;;;;9.00;99.90;;;;;;5070395;28;19942;-70
2022/12/08 01:50:23;;;;;;;;;;;9.00;99.90;;;;;;5079022;28;19928;-70
2022/12/08 01:53:08;;;;;;;;;;;9.00;99.90;;;;;;5088540;28;19916;-72
2022/12/08 01:55:45;;;;;;;;;;;9.00;99.90;;;;;;5076421;28;19916;-70
2022/12/08 02:01:44;;;;;;;;;;;9.00;99.90;;;;;;4992809;28;19964;-70
2022/12/08 02:04:10;;;;;;;;;;;8.90;99.90;;;;;;5087280;28;19920;-69
2022/12/08 02:06:38;;;;;;;;;;;8.80;99.90;;;;;;5100212;28;19920;-70
2022/12/08 02:09:04;;;;;;;;;;;8.80;99.90;;;;;;5088755;28;19913;-72
2022/12/08 02:11:30;;;;;;;;;;;8.80;99.90;;;;;;5094862;28;19916;-69
2022/12/08 02:14:00;;;;;;;;;;;8.70;99.90;;;;;;5094913;28;20007;-70
2022/12/08 02:22:32;;;;;;;;;;;8.70;99.90;;;;;;5073742;28;19919;-73
2022/12/08 02:25:10;;;;;;;;;;;8.70;99.90;;;;;;5096383;28;19912;-71
2022/12/08 02:27:56;;;;;;;;;;;8.70;99.90;;;;;;5087006;28;19998;-71
2022/12/08 02:33:35;;;;;;;;;;;8.70;99.90;;;;;;5012970;28;19920;-70
2022/12/08 02:39:27;;;;;;;;;;;8.60;99.90;;;;;;5011018;28;19940;-70
2022/12/08 02:41:58;;;;;;;;;;;8.60;99.90;;;;;;5011700;28;19913;-70
2022/12/08 02:48:01;;;;;;;;;;;8.70;99.90;;;;;;5093686;28;19919;-72
2022/12/08 02:50:27;;;;;;;;;;;8.80;99.90;;;;;;5095840;28;19918;-69
2022/12/08 02:52:53;;;;;;;;;;;8.80;99.90;;;;;;5099334;28;19919;-70
2022/12/08 02:55:22;;;;;;;;;;;8.80;99.90;;;;;;5097650;28;19912;-70
2022/12/08 02:57:57;;;;;;;;;;;8.80;99.90;;;;;;5095775;28;19912;-70
2022/12/08 03:00:42;;;;;;;;;;;8.70;99.90;;;;;;5098511;28;19916;-69
2022/12/08 03:03:21;;;;;;;;;;;8.60;99.90;;;;;;5091229;28;19912;-70
2022/12/08 03:05:50;;;;;;;;;;;8.60;99.90;;;;;;5090741;28;19917;-70
2022/12/08 03:08:16;;;;;;;;;;;8.50;99.90;;;;;;5098924;28;19908;-70
2022/12/08 03:11:14;;;;;;;;;;;8.50;99.90;;;;;;5097011;28;19916;-69
2022/12/08 03:13:45;;;;;;;;;;;8.40;99.90;;;;;;5077198;28;19938;-70
2022/12/08 03:16:13;;;;;;;;;;;8.40;99.90;;;;;;5095430;28;19912;-69
2022/12/08 03:18:41;;;;;;;;;;;8.40;99.90;;;;;;5079627;28;19912;-70
2022/12/08 03:21:08;;;;;;;;;;;8.30;99.90;;;;;;5097592;28;19954;-69
2022/12/08 03:23:35;;;;;;;;;;;8.30;99.90;;;;;;5098250;28;19908;-69
2022/12/08 03:26:06;;;;;;;;;;;8.30;99.90;;;;;;5097904;28;19938;-68
2022/12/08 03:28:32;;;;;;;;;;;8.30;99.90;;;;;;5088855;28;19912;-68
2022/12/08 03:31:01;;;;;;;;;;;8.30;99.90;;;;;;5090253;28;19923;-69
2022/12/08 03:33:35;;;;;;;;;;;8.40;99.90;;;;;;5093219;28;19961;-68
2022/12/08 03:36:03;;;;;;;;;;;8.40;99.90;;;;;;5094829;28;19916;-69
2022/12/08 03:38:36;;;;;;;;;;;8.40;99.90;;;;;;5078922;28;20001;-69
2022/12/08 03:41:20;;;;;;;;;;;8.50;99.90;;;;;;5089518;28;20166;-68
2022/12/08 03:44:01;;;;;;;;;;;8.60;99.90;;;;;;5095549;28;19943;-68
2022/12/08 03:46:28;;;;;;;;;;;8.60;99.90;;;;;;5094035;28;20005;-72
2022/12/08 03:48:54;;;;;;;;;;;8.50;99.90;;;;;;5096277;28;20208;-69
2022/12/08 03:51:21;;;;;;;;;;;8.50;99.90;;;;;;5092061;28;20379;-69
2022/12/08 03:53:54;;;;;;;;;;;8.50;99.90;;;;;;5093936;28;20128;-68
2022/12/08 03:56:25;;;;;;;;;;;8.50;99.90;;;;;;5092581;28;19912;-69
2022/12/08 03:58:51;;;;;;;;;;;8.40;99.90;;;;;;5078176;28;19908;-68
2022/12/08 04:01:29;;;;;;;;;;;8.30;99.90;;;;;;5094785;28;19919;-69
2022/12/08 04:03:55;;;;;;;;;;;8.40;99.90;;;;;;5092778;28;19947;-69
2022/12/08 04:06:21;;;;;;;;;;;8.30;99.90;;;;;;5092022;28;19954;-68
2022/12/08 04:08:47;;;;;;;;;;;8.30;99.90;;;;;;5092500;28;19912;-69
2022/12/08 04:11:13;;;;;;;;;;;8.20;99.90;;;;;;5095415;28;19912;-69
2022/12/08 04:13:39;;;;;;;;;;;8.20;99.90;;;;;;5096538;28;20337;-69
2022/12/08 04:16:05;;;;;;;;;;;8.10;99.90;;;;;;5095883;28;19915;-68
2022/12/08 04:18:34;;;;;;;;;;;8.20;99.90;;;;;;5098503;28;19912;-68
2022/12/08 04:21:00;;;;;;;;;;;8.20;99.90;;;;;;5095842;28;20066;-68
2022/12/08 04:23:26;;;;;;;;;;;8.20;99.90;;;;;;5093295;28;19988;-69
2022/12/08 04:25:52;;;;;;;;;;;8.10;99.90;;;;;;5076193;28;19918;-68
2022/12/08 04:28:18;;;;;;;;;;;8.10;99.90;;;;;;5091478;28;19957;-68
2022/12/08 04:30:44;;;;;;;;;;;8.10;99.90;;;;;;5095984;28;19908;-68
2022/12/08 04:33:15;;;;;;;;;;;8.20;99.90;;;;;;5095900;28;20269;-72
2022/12/08 04:35:44;;;;;;;;;;;8.20;99.90;;;;;;5095600;28;19970;-68
2022/12/08 04:38:10;;;;;;;;;;;8.20;99.90;;;;;;5094328;28;20332;-68
2022/12/08 04:40:36;;;;;;;;;;;8.20;99.90;;;;;;5086300;28;19920;-67
2022/12/08 04:43:02;;;;;;;;;;;8.20;99.90;;;;;;5075841;28;19998;-68
2022/12/08 04:45:34;;;;;;;;;;;8.20;99.90;;;;;;5085280;28;20384;-68
2022/12/08 04:48:01;;;;;;;;;;;8.20;99.90;;;;;;5087424;28;20375;-69
2022/12/08 04:50:27;;;;;;;;;;;8.20;99.90;;;;;;5086066;28;19919;-71
2022/12/08 04:52:52;;;;;;;;;;;8.20;99.90;;;;;;5090490;28;20044;-68
2022/12/08 04:55:27;;;;;;;;;;;8.20;99.90;;;;;;5087460;28;19986;-68
2022/12/08 04:57:53;;;;;;;;;;;8.30;99.90;;;;;;5095028;28;19954;-68
2022/12/08 05:00:19;;;;;;;;;;;8.30;99.90;;;;;;5094064;28;19916;-68
2022/12/08 05:02:45;;;;;;;;;;;8.20;99.90;;;;;;5090937;28;19916;-68
2022/12/08 05:05:10;;;;;;;;;;;8.20;99.90;;;;;;5087416;28;20379;-69
2022/12/08 05:07:45;;;;;;;;;;;8.10;99.90;;;;;;5086601;28;19920;-69
2022/12/08 05:10:18;;;;;;;;;;;8.00;99.90;;;;;;5073598;28;20354;-67
2022/12/08 05:12:44;;;;;;;;;;;7.90;99.90;;;;;;5090722;28;19916;-68
2022/12/08 05:15:09;;;;;;;;;;;7.80;99.90;;;;;;5075261;28;19912;-68
2022/12/08 05:17:35;;;;;;;;;;;7.80;99.90;;;;;;5094735;28;19908;-67
2022/12/08 05:20:01;;;;;;;;;;;7.80;99.90;;;;;;5093466;28;20003;-68
2022/12/08 05:22:27;;;;;;;;;;;7.70;99.90;;;;;;5095239;28;19909;-69
2022/12/08 05:24:53;;;;;;;;;;;7.70;99.90;;;;;;5094768;28;19998;-72
2022/12/08 05:27:18;;;;;;;;;;;7.80;99.90;;;;;;5095214;28;19912;-68
2022/12/08 05:29:46;;;;;;;;;;;7.80;99.90;;;;;;5094281;28;19908;-67
2022/12/08 05:32:17;;;;;;;;;;;7.80;99.90;;;;;;5093756;28;19920;-68
2022/12/08 05:34:56;;;;;;;;;;;;;;;;;;;;;
2022/12/08 05:37:22;;;;;;;;;;;7.90;99.90;;;;;;5085960;28;19938;-68
2022/12/08 05:39:48;;;;;;;;;;;7.90;99.90;;;;;;5094625;28;20375;-69
2022/12/08 05:42:19;;;;;;;;;;;7.90;99.90;;;;;;5094680;28;19915;-70
2022/12/08 05:44:52;;;;;;;;;;;7.90;99.90;;;;;;5094397;28;20375;-71
2022/12/08 05:47:18;;;;;;;;;;;8.00;99.90;;;;;;5093696;28;19935;-69
2022/12/08 05:49:47;;;;;;;;;;;7.90;99.90;;;;;;5090876;28;19912;-69
2022/12/08 05:52:15;;;;;;;;;;;7.90;99.90;;;;;;5090348;28;20330;-70
2022/12/08 05:54:41;;;;;;;;;;;7.80;99.90;;;;;;5091638;28;19912;-69
2022/12/08 05:57:07;;;;;;;;;;;7.70;99.90;;;;;;5092437;28;19916;-69
2022/12/08 05:59:32;;;;;;;;;;;7.70;99.90;;;;;;5092417;28;19959;-70
2022/12/08 06:01:58;;;;;;;;;;;7.60;99.90;;;;;;5096590;28;19916;-68
2022/12/08 06:04:26;;;;;;;;;;;7.70;99.90;;;;;;5074939;28;19908;-69
2022/12/08 06:06:52;;;;;;;;;;;7.70;99.90;;;;;;5069540;28;20353;-68
2022/12/08 06:09:18;;;;;;;;;;;7.70;99.90;;;;;;5088991;28;19946;-69
2022/12/08 06:11:45;;;;;;;;;;;7.70;99.90;;;;;;5094253;28;19908;-68
2022/12/08 06:14:11;;;;;;;;;;;7.80;99.90;;;;;;5094009;28;19912;-68
2022/12/08 06:16:36;;;;;;;;;;;7.80;99.90;;;;;;5093896;28;20392;-69
2022/12/08 06:19:02;;;;;;;;;;;7.80;99.90;;;;;;5093741;28;20390;-69
2022/12/08 06:21:28;;;;;;;;;;;7.80;99.90;;;;;;5081804;28;19927;-71
2022/12/08 06:23:54;;;;;;;;;;;7.90;99.90;;;;;;5073589;28;19909;-70
2022/12/08 06:26:25;;;;;;;;;;;7.80;99.90;;;;;;5077965;28;19993;-70
2022/12/08 06:29:00;;;;;;;;;;;7.70;99.90;;;;;;5094303;28;19908;-69
2022/12/08 06:31:28;;;;;;;;;;;7.60;99.90;;;;;;5094248;28;19908;-69
2022/12/08 06:33:57;;;;;;;;;;;7.60;99.90;;;;;;5092587;28;19920;-71
2022/12/08 06:36:24;;;;;;;;;;;7.70;99.90;;;;;;5091790;28;20271;-70
2022/12/08 06:38:50;;;;;;;;;;;7.60;99.90;;;;;;5092061;28;20318;-70
2022/12/08 06:41:19;;;;;;;;;;;7.60;99.90;;;;;;5089519;28;19990;-73
2022/12/08 06:43:44;;;;;;;;;;;7.60;99.90;;;;;;5074628;28;19912;-70
2022/12/08 06:46:20;;;;;;;;;;;7.50;99.90;;;;;;5071171;28;19969;-70
2022/12/08 06:48:49;;;;;;;;;;;7.50;99.90;;;;;;5086186;28;20016;-69
2022/12/08 06:51:16;;;;;;;;;;;7.60;99.90;;;;;;5074051;28;19919;-70
2022/12/08 06:53:48;;;;;;;;;;;7.60;99.90;;;;;;5086292;28;19924;-69
2022/12/08 06:56:15;;;;;;;;;;;7.50;99.90;;;;;;5088636;28;19931;-68
2022/12/08 06:58:41;;;;;;;;;;;7.40;99.90;;;;;;5093788;28;19915;-69
2022/12/08 07:01:09;;;;;;;;;;;7.40;99.90;;;;;;5092935;28;19916;-69
2022/12/08 07:03:35;;;;;;;;;;;7.50;99.90;;;;;;5082659;28;19912;-70
2022/12/08 07:06:01;;;;;;;;;;;7.50;99.90;;;;;;5082602;28;20527;-69
2022/12/08 07:08:36;;;;;;;;;;;7.50;99.90;;;;;;5075778;28;20029;-70
2022/12/08 07:11:08;;;;;;;;;;;7.50;99.90;;;;;;5074794;28;20383;-70
2022/12/08 07:13:34;;;;;;;;;;;7.40;99.90;;;;;;5088659;28;19920;-70
2022/12/08 07:16:00;;;;;;;;;;;7.40;99.90;;;;;;5093307;28;19908;-73
2022/12/08 07:18:26;;;;;;;;;;;7.50;99.90;;;;;;5093450;28;19915;-70
2022/12/08 07:20:52;;;;;;;;;;;7.50;99.90;;;;;;5094022;28;19919;-70
2022/12/08 07:23:18;;;;;;;;;;;7.50;99.90;;;;;;5093466;28;19915;-69
2022/12/08 07:25:46;;;;;;;;;;;7.50;99.90;;;;;;5093108;28;20637;-69
2022/12/08 07:28:33;;;;;;;;;;;7.60;99.90;;;;;;5092558;28;19919;-68
2022/12/08 07:31:18;;;;;;;;;;;7.60;99.90;;;;;;5085254;28;19912;-69
2022/12/08 07:34:29;;;;;;;;;;;7.70;99.90;;;;;;5073218;28;19912;-69
2022/12/08 07:36:31;;;;;;;;;;;7.80;99.90;;;;;;5078366;28;19973;-70
2022/12/08 07:38:59;;;;;;;;;;;7.80;99.90;;;;;;5096374;28;19915;-70
2022/12/08 07:41:28;;;;;;;;;;;7.80;99.90;;;;;;5091439;28;19941;-70
2022/12/08 07:44:00;;;;;;;;;;;7.70;99.90;;;;;;5093407;28;19915;-69
2022/12/08 07:46:26;;;;;;;;;;;7.60;99.90;;;;;;5071523;28;19966;-70
2022/12/08 07:48:55;;;;;;;;;;;7.50;99.90;;;;;;5095896;28;19908;-69
2022/12/08 07:51:22;;;;;;;;;;;7.50;99.90;;;;;;5095051;28;19918;-69
2022/12/08 07:54:09;;;;;;;;;;;7.50;99.90;;;;;;5080275;28;20019;-69
2022/12/08 07:56:34;;;;;;;;;;;7.50;99.90;;;;;;5077493;28;20015;-70
2022/12/08 07:59:00;;;;;;;;;;;7.50;99.90;;;;;;5083489;28;19947;-70
2022/12/08 08:01:27;;;;;;;;;;;7.50;99.90;;;;;;5083796;28;19912;-70
2022/12/08 08:03:53;;;;;;;;;;;7.40;99.90;;;;;;5086762;28;19913;-70
2022/12/08 08:06:19;;;;;;;;;;;7.40;99.90;;;;;;5066902;28;19920;-70
2022/12/08 08:08:45;;;;;;;;;;;7.40;99.90;;;;;;5102414;28;19927;-70
2022/12/08 08:11:11;;;;;;;;;;;7.40;99.90;;;;;;5095331;28;19915;-70
2022/12/08 08:13:36;;;;;;;;;;;7.30;99.90;;;;;;5093914;28;19916;-69
2022/12/08 08:16:06;;;;;;;;;;;7.30;99.90;;;;;;5091319;28;19908;-70
2022/12/08 08:18:32;;;;;;;;;;;7.40;99.90;;;;;;5077318;28;19934;-71
2022/12/08 08:20:58;;;;;;;;;;;7.40;99.90;;;;;;5095641;28;19908;-71
2022/12/08 08:23:27;;;;;;;;;;;7.50;99.90;;;;;;5085377;28;20246;-72
2022/12/08 08:25:53;;;;;;;;;;;7.50;99.90;;;;;;5089962;28;19916;-72
2022/12/08 08:31:23;;;;;;;;;;;7.60;99.90;;;;;;5018925;28;19914;-68
2022/12/08 08:33:49;;;;;;;;;;;7.60;99.90;;;;;;5087439;28;20013;-66
2022/12/08 08:36:15;;;;;;;;;;;7.60;99.90;;;;;;5088771;28;20418;-68
2022/12/08 08:38:42;;;;;;;;;;;7.70;99.90;;;;;;5095207;28;19908;-68
2022/12/08 08:44:14;;;;;;;;;;;7.80;99.90;;;;;;5070562;28;19919;-68
2022/12/08 08:46:40;;;;;;;;;;;7.90;99.90;;;;;;5087229;28;19916;-68
2022/12/08 08:49:06;;;;;;;;;;;8.00;99.90;;;;;;5085520;28;19943;-66
2022/12/08 08:51:38;;;;;;;;;;;8.00;99.90;;;;;;5075686;28;19916;-70
2022/12/08 08:54:03;;;;;;;;;;;8.00;99.90;;;;;;5090348;28;20276;-75
2022/12/08 08:56:29;;;;;;;;;;;8.10;99.90;;;;;;5092551;28;19912;-71
2022/12/08 08:58:55;;;;;;;;;;;8.10;99.90;;;;;;5091467;28;19912;-69
2022/12/08 09:01:24;;;;;;;;;;;8.20;99.90;;;;;;5090633;28;19923;-71
2022/12/08 09:03:50;;;;;;;;;;;8.30;99.90;;;;;;5083971;28;19916;-70
2022/12/08 09:06:17;;;;;;;;;;;8.30;99.90;;;;;;5089472;28;20328;-71
2022/12/08 09:08:43;;;;;;;;;;;8.30;99.90;;;;;;5085583;28;20424;-70
2022/12/08 09:11:16;;;;;;;;;;;8.50;99.90;;;;;;5069762;28;19913;-72
2022/12/08 09:13:42;;;;;;;;;;;8.50;99.90;;;;;;5086745;28;19985;-72
2022/12/08 09:16:08;;;;;;;;;;;8.60;99.90;;;;;;5091455;28;19920;-71
2022/12/08 09:18:36;;;;;;;;;;;8.70;99.90;;;;;;5092485;28;19923;-72
2022/12/08 09:21:07;;;;;;;;;;;8.70;99.90;;;;;;5086437;28;19916;-72
2022/12/08 09:23:33;;;;;;;;;;;8.80;99.90;;;;;;5091103;28;20081;-72
2022/12/08 09:25:58;;;;;;;;;;;8.70;99.90;;;;;;5093510;28;20560;-73
2022/12/08 09:28:24;;;;;;;;;;;8.80;99.90;;;;;;5092862;28;19961;-72
2022/12/08 09:30:51;;;;;;;;;;;8.90;99.90;;;;;;5094013;28;19920;-72
2022/12/08 09:33:16;;;;;;;;;;;9.00;99.90;;;;;;5091047;28;20599;-77
2022/12/08 09:35:42;;;;;;;;;;;9.20;99.90;;;;;;5088572;28;19992;-72
2022/12/08 09:38:08;;;;;;;;;;;9.30;99.90;;;;;;5091745;28;19912;-71
2022/12/08 09:40:39;;;;;;;;;;;9.50;99.90;;;;;;5091834;28;19912;-73
2022/12/08 09:43:42;;;;;;;;;;;9.50;99.90;;;;;;5089273;28;20002;-72
2022/12/08 09:46:09;;;;;;;;;;;9.60;99.90;;;;;;5093474;28;19909;-77
2022/12/08 09:48:38;;;;;;;;;;;9.80;99.90;;;;;;5091061;28;19911;-71
2022/12/08 09:51:10;;;;;;;;;;;9.80;99.90;;;;;;5094486;28;19960;-70
2022/12/08 09:53:50;;;;;;;;;;;9.90;99.90;;;;;;5074833;28;19924;-72
2022/12/08 09:56:28;;;;;;;;;;;10.00;99.90;;;;;;5088400;28;19915;-70
2022/12/08 09:59:18;;;;;;;;;;;10.10;99.90;;;;;;5087722;28;20443;-71
2022/12/08 10:01:44;;;;;;;;;;;10.10;99.90;;;;;;5066864;28;19955;-72
2022/12/08 10:04:24;;;;;;;;;;;10.10;99.90;;;;;;5075357;28;19912;-74
2022/12/08 10:06:50;;;;;;;;;;;10.20;99.90;;;;;;5081113;28;19912;-75
2022/12/08 10:09:34;;;;;;;;;;;10.30;99.90;;;;;;5075454;28;19919;-76
2022/12/08 10:12:21;;;;;;;;;;;10.30;99.90;;;;;;5090577;28;19955;-74
2022/12/08 10:14:50;;;;;;;;;;;10.50;99.90;;;;;;5087383;28;20393;-74
2022/12/08 10:17:20;;;;;;;;;;;10.50;99.90;;;;;;5086450;28;19935;-74
2022/12/08 10:19:47;;;;;;;;;;;10.70;99.90;;;;;;5092683;28;20163;-73
2022/12/08 10:22:22;;;;;;;;;;;10.80;99.90;;;;;;5091749;28;20404;-73
2022/12/08 10:25:26;;;;;;;;;;;10.90;99.90;;;;;;5073080;28;19918;-74
2022/12/08 10:27:52;;;;;;;;;;;11.00;99.90;;;;;;5079843;28;20282;-72
2022/12/08 10:30:22;;;;;;;;;;;11.10;99.90;;;;;;5083878;28;19913;-73
2022/12/08 10:32:55;;;;;;;;;;;11.10;99.90;;;;;;5091272;28;19958;-72
2022/12/08 10:35:21;;;;;;;;;;;11.20;99.90;;;;;;5087905;28;19977;-71
2022/12/08 10:38:10;;;;;;;;;;;11.30;99.90;;;;;;5070578;28;19961;-71
2022/12/08 10:40:36;;;;;;;;;;;11.30;99.90;;;;;;5071713;28;19951;-72
2022/12/08 10:43:04;;;;;;;;;;;11.30;99.90;;;;;;5071458;28;20333;-72
2022/12/08 10:45:36;;;;;;;;;;;11.30;99.90;;;;;;5070723;28;19915;-72
2022/12/08 10:48:20;;;;;;;;;;;11.40;99.90;;;;;;5086776;28;19913;-72
2022/12/08 10:50:51;;;;;;;;;;;11.40;99.90;;;;;;5078061;28;19919;-72
2022/12/08 10:53:27;;;;;;;;;;;11.40;99.90;;;;;;5085648;28;19916;-73
2022/12/08 10:56:02;;;;;;;;;;;11.40;99.90;;;;;;5088884;28;20207;-72
2022/12/08 10:58:44;;;;;;;;;;;11.40;99.90;;;;;;5092606;28;20364;-72
2022/12/08 11:01:14;;;;;;;;;;;11.50;99.90;;;;;;5087289;28;19957;-72
2022/12/08 11:03:45;;;;;;;;;;;11.50;99.90;;;;;;5094628;28;20378;-71
2022/12/08 11:06:17;;;;;;;;;;;11.50;99.90;;;;;;5075718;28;19913;-72
2022/12/08 11:08:45;;;;;;;;;;;11.60;99.90;;;;;;5085077;28;19912;-72
2022/12/08 11:11:16;;;;;;;;;;;11.60;99.90;;;;;;5083051;28;19912;-72
2022/12/08 11:13:42;;;;;;;;;;;11.60;99.90;;;;;;5085779;28;19920;-72
2022/12/08 11:16:10;;;;;;;;;;;11.70;99.90;;;;;;5090263;28;20543;-72
2022/12/08 11:18:48;;;;;;;;;;;11.70;99.90;;;;;;5093180;28;19965;-72
2022/12/08 11:21:15;;;;;;;;;;;11.70;99.90;;;;;;5093159;28;19912;-72
2022/12/08 11:23:42;;;;;;;;;;;11.80;99.90;;;;;;5071470;28;20041;-72
2022/12/08 11:26:26;;;;;;;;;;;11.80;99.90;;;;;;5093222;28;20301;-72
2022/12/08 11:28:52;;;;;;;;;;;11.80;99.90;;;;;;5098694;28;19922;-71
2022/12/08 11:31:26;;;;;;;;;;;11.80;99.90;;;;;;5079807;28;20011;-73
2022/12/08 11:33:51;;;;;;;;;;;11.80;99.90;;;;;;5096795;28;19915;-72
2022/12/08 11:36:20;;;;;;;;;;;11.80;99.90;;;;;;5073975;28;19920;-73
2022/12/08 11:38:48;;;;;;;;;;;11.80;99.90;;;;;;5090109;28;20011;-72
2022/12/08 11:41:15;;;;;;;;;;;11.90;99.90;;;;;;5090646;28;19916;-72
2022/12/08 11:44:10;;;;;;;;;;;12.00;99.90;;;;;;5086877;28;19951;-73
2022/12/08 11:46:39;;;;;;;;;;;12.00;99.90;;;;;;5088783;28;19927;-73
2022/12/08 11:49:09;;;;;;;;;;;12.00;99.90;;;;;;5090199;28;19958;-73
2022/12/08 11:51:42;;;;;;;;;;;11.90;99.90;;;;;;5095650;28;19938;-73
2022/12/08 11:54:14;;;;;;;;;;;11.90;99.90;;;;;;5088437;28;20000;-73
2022/12/08 11:56:51;;;;;;;;;;;11.90;99.90;;;;;;5093022;28;19912;-72
2022/12/08 11:59:43;;;;;;;;;;;12.00;99.90;;;;;;5069064;28;20428;-73
2022/12/08 12:02:13;;;;;;;;;;;12.00;99.90;;;;;;5090887;28;19912;-73
2022/12/08 12:04:39;;;;;;;;;;;12.00;99.90;;;;;;5094976;28;19943;-73
2022/12/08 12:07:11;;;;;;;;;;;12.00;99.90;;;;;;5088503;28;19919;-73
2022/12/08 12:09:40;;;;;;;;;;;12.00;99.90;;;;;;5089051;28;20405;-73
2022/12/08 12:12:15;;;;;;;;;;;12.00;99.90;;;;;;5089694;28;19979;-73
2022/12/08 12:14:59;;;;;;;;;;;11.90;99.90;;;;;;5088382;28;20375;-72
2022/12/08 12:17:30;;;;;;;;;;;11.90;99.90;;;;;;5091821;28;19916;-72
2022/12/08 12:19:59;;;;;;;;;;;11.90;99.90;;;;;;5090985;28;19909;-72
2022/12/08 12:22:28;;;;;;;;;;;11.90;99.90;;;;;;5075492;28;19944;-73
2022/12/08 12:24:54;;;;;;;;;;;11.90;99.90;;;;;;5072730;28;19908;-73
2022/12/08 12:27:38;;;;;;;;;;;11.80;99.90;;;;;;5098381;28;20068;-74
2022/12/08 12:30:09;;;;;;;;;;;11.90;99.90;;;;;;5096071;28;19924;-72
2022/12/08 12:32:47;;;;;;;;;;;11.90;99.90;;;;;;5095890;28;19919;-72
2022/12/08 12:35:33;;;;;;;;;;;11.90;99.90;;;;;;5085228;28;19912;-72
2022/12/08 12:38:02;;;;;;;;;;;11.80;99.90;;;;;;5089882;28;19998;-72
2022/12/08 12:40:34;;;;;;;;;;;11.80;99.90;;;;;;5092536;28;19999;-72
2022/12/08 12:43:00;;;;;;;;;;;11.70;99.90;;;;;;5090490;28;19912;-72
2022/12/08 12:45:28;;;;;;;;;;;11.80;99.90;;;;;;5091516;28;20038;-72
2022/12/08 12:47:53;;;;;;;;;;;11.70;99.90;;;;;;5093893;28;19978;-73
2022/12/08 12:50:31;;;;;;;;;;;11.70;99.90;;;;;;5091372;28;20375;-72
2022/12/08 12:53:02;;;;;;;;;;;11.70;99.90;;;;;;5090217;28;19919;-71
2022/12/08 12:55:47;;;;;;;;;;;11.70;99.90;;;;;;5093626;28;19964;-71
2022/12/08 12:58:22;;;;;;;;;;;11.70;99.90;;;;;;5092471;28;19913;-71
2022/12/08 13:00:47;;;;;;;;;;;11.70;99.90;;;;;;5088759;28;19963;-72
2022/12/08 13:03:14;;;;;;;;;;;11.70;99.90;;;;;;5090206;28;20209;-72
2022/12/08 13:05:49;;;;;;;;;;;11.80;99.90;;;;;;5093874;28;19912;-72
2022/12/08 13:08:25;;;;;;;;;;;11.80;99.90;;;;;;5075989;28;20046;-72
2022/12/08 13:10:56;;;;;;;;;;;11.80;99.90;;;;;;5090145;28;19922;-73
2022/12/08 13:13:24;;;;;;;;;;;11.80;99.90;;;;;;5091509;28;19920;-73
2022/12/08 13:15:53;;;;;;;;;;;11.70;99.90;;;;;;5087619;28;19982;-72
2022/12/08 13:18:30;;;;;;;;;;;11.70;99.90;;;;;;5083538;28;19919;-72
2022/12/08 13:21:04;;;;;;;;;;;11.70;99.90;;;;;;5087439;28;19912;-72
2022/12/08 13:23:36;;;;;;;;;;;11.70;99.90;;;;;;5092211;28;20277;-72
2022/12/08 13:26:16;;;;;;;;;;;11.70;99.90;;;;;;5093981;28;20140;-74
2022/12/08 13:29:02;;;;;;;;;;;11.70;99.90;;;;;;5086328;28;19923;-73
2022/12/08 13:31:34;;;;;;;;;;;11.60;99.90;;;;;;5089348;28;19920;-74
2022/12/08 13:34:00;;;;;;;;;;;11.70;99.90;;;;;;5094235;28;19919;-73
2022/12/08 13:36:34;;;;;;;;;;;11.60;99.90;;;;;;5087073;28;19913;-72
2022/12/08 13:39:03;;;;;;;;;;;11.60;99.90;;;;;;5089409;28;20350;-73
2022/12/08 13:41:33;;;;;;;;;;;11.50;99.90;;;;;;5084479;28;19916;-73
2022/12/08 13:44:03;;;;;;;;;;;11.60;99.90;;;;;;5091427;28;19920;-73
2022/12/08 13:46:36;;;;;;;;;;;11.60;99.90;;;;;;5094571;28;20011;-72
2022/12/08 13:49:15;;;;;;;;;;;11.70;99.90;;;;;;5090290;28;20353;-73
2022/12/08 13:51:42;;;;;;;;;;;11.60;99.90;;;;;;5100155;28;20414;-73
2022/12/08 13:54:19;;;;;;;;;;;11.50;99.90;;;;;;5089596;28;20316;-73
2022/12/08 13:56:45;;;;;;;;;;;11.50;99.90;;;;;;5093274;28;20379;-73
2022/12/08 13:59:31;;;;;;;;;;;11.40;99.90;;;;;;5074932;28;20007;-73
2022/12/08 14:02:01;;;;;;;;;;;11.50;99.90;;;;;;5092634;28;19923;-73
2022/12/08 14:04:27;;;;;;;;;;;11.60;99.90;;;;;;5090558;28;19912;-72
2022/12/08 14:06:58;;;;;;;;;;;11.60;99.90;;;;;;5085739;28;20397;-73
2022/12/08 14:09:26;;;;;;;;;;;11.50;99.90;;;;;;5091324;28;19912;-73
2022/12/08 14:11:51;;;;;;;;;;;11.50;99.90;;;;;;5085375;28;19939;-73
2022/12/08 14:14:22;;;;;;;;;;;11.50;99.90;;;;;;5074526;28;20439;-73
2022/12/08 14:16:59;;;;;;;;;;;11.50;99.90;;;;;;5086040;28;19952;-74
2022/12/08 14:19:25;;;;;;;;;;;11.50;99.90;;;;;;5073197;28;19908;-73
2022/12/08 14:21:59;;;;;;;;;;;11.50;99.90;;;;;;5073467;28;20407;-73
2022/12/08 14:24:30;;;;;;;;;;;11.30;99.90;;;;;;5073249;28;19921;-74
2022/12/08 14:27:04;;;;;;;;;;;11.40;99.90;;;;;;5078635;28;19912;-73
2022/12/08 14:29:37;;;;;;;;;;;11.40;99.90;;;;;;5093295;28;19908;-73
2022/12/08 14:32:04;;;;;;;;;;;11.40;99.90;;;;;;5093760;28;19934;-73
2022/12/08 14:34:39;;;;;;;;;;;11.40;99.90;;;;;;5080321;28;20011;-73
2022/12/08 14:37:07;;;;;;;;;;;11.30;99.90;;;;;;5095362;28;19917;-73
2022/12/08 14:39:33;;;;;;;;;;;11.30;99.90;;;;;;5083161;28;19908;-73
2022/12/08 14:41:59;;;;;;;;;;;11.30;99.90;;;;;;5091062;28;19912;-73
2022/12/08 14:44:28;;;;;;;;;;;11.20;99.90;;;;;;5089543;28;19936;-73
2022/12/08 14:47:04;;;;;;;;;;;11.30;99.90;;;;;;5068888;28;19920;-73
2022/12/08 14:49:37;;;;;;;;;;;11.30;99.90;;;;;;5094468;28;20362;-73
2022/12/08 14:52:08;;;;;;;;;;;11.20;99.90;;;;;;5096630;28;19951;-73
2022/12/08 14:54:34;;;;;;;;;;;11.20;99.90;;;;;;5093574;28;20326;-72
2022/12/08 14:57:00;;;;;;;;;;;11.20;99.90;;;;;;5094708;28;19912;-74
2022/12/08 14:59:28;;;;;;;;;;;11.20;99.90;;;;;;5098496;28;19908;-73
2022/12/08 15:02:13;;;;;;;;;;;11.10;99.90;;;;;;5079826;28;19912;-73
2022/12/08 15:04:40;;;;;;;;;;;11.10;99.90;;;;;;5070356;28;19916;-74
2022/12/08 15:07:17;;;;;;;;;;;11.10;99.90;;;;;;5094325;28;19994;-73
2022/12/08 15:09:45;;;;;;;;;;;11.00;99.90;;;;;;5095018;28;20151;-73
2022/12/08 15:12:10;;;;;;;;;;;11.10;99.90;;;;;;5076456;28;19912;-73
2022/12/08 15:14:37;;;;;;;;;;;11.10;99.90;;;;;;5093499;28;19931;-73
2022/12/08 15:17:03;;;;;;;;;;;11.00;99.90;;;;;;5093985;28;19977;-73
2022/12/08 15:19:32;;;;;;;;;;;11.00;99.90;;;;;;5095242;28;19947;-74
2022/12/08 15:22:12;;;;;;;;;;;11.00;99.90;;;;;;5088808;28;19958;-73
2022/12/08 15:24:37;;;;;;;;;;;11.00;99.90;;;;;;5091811;28;20368;-73
2022/12/08 15:27:03;;;;;;;;;;;10.90;99.90;;;;;;5094599;28;19912;-75
2022/12/08 15:29:32;;;;;;;;;;;10.90;99.90;;;;;;5094416;28;19912;-73
2022/12/08 15:32:02;;;;;;;;;;;11.00;99.90;;;;;;5094224;28;19921;-73
2022/12/08 15:34:30;;;;;;;;;;;11.00;99.90;;;;;;5095456;28;19923;-73
2022/12/08 15:36:56;;;;;;;;;;;10.90;99.90;;;;;;5094745;28;19923;-73
2022/12/08 15:39:36;;;;;;;;;;;11.00;99.90;;;;;;5094493;28;19916;-73